createdAt,value
2018-05-04T00:02:00.012Z,3.03
2018-05-04T00:04:26.852Z,3.50
2018-05-04T00:06:53.712Z,2.60
2018-05-04T00:09:20.598Z,2.80
2018-05-04T00:11:47.506Z,3.73
2018-05-04T00:14:14.451Z,2.87
2018-05-04T00:16:41.288Z,3.23
2018-05-04T00:19:08.220Z,2.90
2018-05-04T00:21:35.074Z,2.47
2018-05-04T00:24:01.918Z,2.90
2018-05-04T00:26:28.879Z,2.83
2018-05-04T00:28:55.751Z,3.43
2018-05-04T00:31:22.589Z,2.93
2018-05-04T00:33:49.455Z,2.87
2018-05-04T00:36:16.297Z,2.87
2018-05-04T00:38:43.164Z,2.93
2018-05-04T00:41:09.999Z,2.70
2018-05-04T00:43:37.229Z,3.17
2018-05-04T00:46:04.151Z,2.70
2018-05-04T00:48:31.004Z,2.63
2018-05-04T00:50:57.882Z,2.60
2018-05-04T00:53:24.751Z,2.73
2018-05-04T00:55:51.746Z,2.90
2018-05-04T00:58:18.526Z,3.13
2018-05-04T01:00:45.508Z,2.60
2018-05-04T01:03:12.447Z,2.63
2018-05-04T01:05:39.322Z,3.27
2018-05-04T01:08:06.186Z,2.80
2018-05-04T01:10:33.131Z,3.33
2018-05-04T01:12:59.967Z,3.53
2018-05-04T01:15:26.935Z,3.17
2018-05-04T01:17:53.789Z,2.60
2018-05-04T01:20:20.637Z,2.80
2018-05-04T01:22:47.923Z,2.70
2018-05-04T01:25:14.787Z,2.90
2018-05-04T01:27:41.631Z,2.53
2018-05-04T01:30:08.482Z,3.10
2018-05-04T01:32:35.389Z,2.77
2018-05-04T01:35:02.231Z,3.13
2018-05-04T01:37:29.092Z,2.70
2018-05-04T01:39:55.968Z,2.50
2018-05-04T01:42:22.818Z,2.80
2018-05-04T01:44:49.743Z,2.40
2018-05-04T01:47:16.593Z,3.13
2018-05-04T01:49:43.448Z,2.67
2018-05-04T01:52:10.307Z,2.37
2018-05-04T01:54:37.183Z,2.47
2018-05-04T01:57:04.030Z,2.77
2018-05-04T01:59:30.902Z,3.57
2018-05-04T02:01:57.781Z,3.00
2018-05-04T02:04:24.626Z,2.73
2018-05-04T02:06:51.523Z,2.53
2018-05-04T02:09:18.823Z,2.83
2018-05-04T02:11:45.688Z,2.90
2018-05-04T02:14:12.530Z,2.77
2018-05-04T02:16:39.410Z,2.50
2018-05-04T02:19:06.272Z,2.60
2018-05-04T02:21:33.131Z,3.10
2018-05-04T02:24:00.024Z,2.80
2018-05-04T02:26:26.891Z,2.53
2018-05-04T02:28:53.745Z,2.50
2018-05-04T02:31:20.746Z,3.03
2018-05-04T02:33:47.595Z,2.53
2018-05-04T02:36:14.458Z,3.03
2018-05-04T02:38:41.326Z,2.20
2018-05-04T02:41:08.159Z,2.47
2018-05-04T02:43:35.003Z,3.07
2018-05-04T02:46:02.270Z,2.83
2018-05-04T02:48:29.706Z,2.90
2018-05-04T02:50:56.674Z,3.03
2018-05-04T02:53:23.581Z,3.23
2018-05-04T02:55:50.446Z,2.70
2018-05-04T02:58:17.321Z,2.67
2018-05-04T03:00:44.199Z,3.20
2018-05-04T03:03:12.075Z,2.90
2018-05-04T03:05:39.015Z,3.03
2018-05-04T03:08:05.886Z,2.80
2018-05-04T03:10:32.770Z,3.30
2018-05-04T03:12:59.666Z,2.33
2018-05-04T03:15:26.528Z,2.50
2018-05-04T03:17:53.583Z,2.70
2018-05-04T03:20:20.452Z,2.70
2018-05-04T03:22:47.307Z,2.73
2018-05-04T03:25:14.180Z,2.50
2018-05-04T03:27:41.020Z,2.87
2018-05-04T03:30:07.896Z,2.80
2018-05-04T03:32:34.763Z,3.40
2018-05-04T03:35:01.606Z,3.00
2018-05-04T03:37:28.727Z,2.87
2018-05-04T03:39:55.790Z,3.20
2018-05-04T03:42:23.026Z,3.03
2018-05-04T03:44:49.938Z,2.77
2018-05-04T03:47:16.902Z,2.50
2018-05-04T03:49:43.740Z,2.70
2018-05-04T03:52:10.685Z,2.70
2018-05-04T03:54:37.855Z,4.23
2018-05-04T03:57:16.926Z,3.23
2018-05-04T03:59:55.811Z,2.70
2018-05-04T04:02:34.738Z,3.00
2018-05-04T04:05:01.537Z,3.17
2018-05-04T04:07:28.842Z,3.10
2018-05-04T04:09:55.737Z,3.00
2018-05-04T04:12:22.603Z,2.60
2018-05-04T04:14:49.855Z,3.67
2018-05-04T04:17:16.758Z,2.90
2018-05-04T04:19:43.640Z,2.50
2018-05-04T04:22:10.471Z,2.67
2018-05-04T04:24:37.311Z,3.17
2018-05-04T04:27:05.394Z,3.10
2018-05-04T04:29:32.635Z,3.20
2018-05-04T04:31:59.490Z,3.23
2018-05-04T04:34:26.414Z,3.40
2018-05-04T04:36:53.257Z,3.50
2018-05-04T04:39:20.211Z,3.10
2018-05-04T04:41:47.074Z,4.80
2018-05-04T04:44:13.995Z,3.60
2018-05-04T04:46:40.835Z,3.60
2018-05-04T04:49:07.823Z,3.57
2018-05-04T04:51:34.874Z,3.47
2018-05-04T04:54:01.772Z,4.63
2018-05-04T04:56:28.616Z,4.10
2018-05-04T04:58:55.491Z,3.97
2018-05-04T05:01:22.442Z,3.97
2018-05-04T05:03:49.286Z,3.30
2018-05-04T05:06:16.572Z,3.67
2018-05-04T05:08:43.434Z,4.17
2018-05-04T05:11:10.287Z,3.77
2018-05-04T05:13:37.246Z,3.57
2018-05-04T05:16:04.086Z,4.10
2018-05-04T05:18:30.935Z,4.70
2018-05-04T05:20:58.199Z,3.90
2018-05-04T05:23:25.441Z,4.40
2018-05-04T05:25:52.358Z,4.50
2018-05-04T05:28:19.226Z,4.07
2018-05-04T05:30:46.073Z,4.43
2018-05-04T05:33:12.916Z,4.20
2018-05-04T05:35:39.820Z,3.80
2018-05-04T05:38:06.624Z,3.93
2018-05-04T05:40:33.477Z,4.53
2018-05-04T05:43:00.346Z,5.03
2018-05-04T05:45:27.283Z,4.40
2018-05-04T05:47:54.516Z,3.97
2018-05-04T05:50:21.388Z,4.30
2018-05-04T05:52:48.232Z,4.50
2018-05-04T05:55:15.232Z,4.40
2018-05-04T05:57:42.516Z,4.20
2018-05-04T06:00:09.356Z,4.00
2018-05-04T06:02:36.195Z,4.87
2018-05-04T06:05:03.500Z,4.60
2018-05-04T06:07:30.548Z,4.10
2018-05-04T06:09:57.481Z,4.37
2018-05-04T06:12:24.729Z,3.77
2018-05-04T06:14:51.586Z,4.10
2018-05-04T06:17:18.501Z,3.73
2018-05-04T06:19:45.329Z,3.83
2018-05-04T06:22:12.186Z,3.30
2018-05-04T06:24:39.453Z,3.43
2018-05-04T06:27:06.305Z,3.77
2018-05-04T06:29:33.594Z,3.27
2018-05-04T06:32:00.499Z,3.37
2018-05-04T06:34:27.342Z,3.00
2018-05-04T06:36:54.308Z,2.57
2018-05-04T06:39:21.360Z,2.47
2018-05-04T06:41:48.294Z,2.73
2018-05-04T06:44:15.244Z,3.30
2018-05-04T06:46:42.087Z,2.57
2018-05-04T06:49:08.968Z,2.60
2018-05-04T06:51:35.817Z,3.63
2018-05-04T06:54:02.670Z,2.37
2018-05-04T06:56:29.647Z,2.60
2018-05-04T06:58:56.681Z,2.83
2018-05-04T07:01:23.537Z,2.60
2018-05-04T07:03:50.846Z,2.67
2018-05-04T07:06:17.688Z,3.37
2018-05-04T07:08:44.526Z,2.10
2018-05-04T07:11:11.404Z,2.60
2018-05-04T07:13:38.239Z,2.57
2018-05-04T07:16:05.089Z,2.43
2018-05-04T07:18:32.409Z,2.73
2018-05-04T07:20:59.267Z,2.50
2018-05-04T07:23:26.120Z,2.90
2018-05-04T07:25:53.055Z,2.70
2018-05-04T07:28:19.923Z,2.73
2018-05-04T07:30:46.877Z,2.60
2018-05-04T07:33:13.756Z,2.70
2018-05-04T07:35:40.690Z,2.60
2018-05-04T07:38:07.534Z,2.80
2018-05-04T07:40:34.402Z,3.23
2018-05-04T07:43:01.303Z,3.00
2018-05-04T07:45:28.142Z,3.10
2018-05-04T07:47:55.161Z,3.10
2018-05-04T07:50:22.091Z,3.20
2018-05-04T07:52:49.366Z,3.57
2018-05-04T07:55:16.687Z,3.60
2018-05-04T07:57:43.534Z,3.43
2018-05-04T08:00:10.402Z,4.77
2018-05-04T08:02:37.241Z,3.13
2018-05-04T08:05:04.106Z,3.60
2018-05-04T08:07:30.980Z,3.47
2018-05-04T08:09:57.881Z,3.40
2018-05-04T08:12:25.161Z,3.90
2018-05-04T08:14:52.402Z,3.50
2018-05-04T08:17:19.302Z,3.30
2018-05-04T08:19:46.164Z,3.33
2018-05-04T08:22:13.108Z,2.90
2018-05-04T08:24:40.055Z,3.37
2018-05-04T08:27:06.893Z,3.80
2018-05-04T08:29:34.156Z,3.60
2018-05-04T08:32:01.095Z,3.03
2018-05-04T08:34:28.026Z,3.47
2018-05-04T08:36:54.874Z,3.40
2018-05-04T08:39:21.829Z,2.57
2018-05-04T08:41:48.663Z,3.43
2018-05-04T08:44:15.948Z,3.50
2018-05-04T08:46:43.252Z,3.50
2018-05-04T08:49:10.513Z,4.23
2018-05-04T08:51:37.450Z,3.40
2018-05-04T08:54:04.295Z,3.60
2018-05-04T08:56:31.184Z,3.47
2018-05-04T08:58:58.004Z,3.93
2018-05-04T09:01:24.869Z,3.40
2018-05-04T09:03:51.731Z,3.73
2018-05-04T09:06:18.580Z,3.00
2018-05-04T09:08:45.501Z,3.40
2018-05-04T09:11:12.351Z,3.77
2018-05-04T09:13:39.264Z,4.20
2018-05-04T09:16:06.139Z,3.90
2018-05-04T09:18:33.079Z,4.17
2018-05-04T09:20:59.928Z,3.93
2018-05-04T09:23:26.815Z,3.50
2018-05-04T09:25:53.674Z,3.83
2018-05-04T09:28:20.522Z,3.63
2018-05-04T09:30:47.378Z,3.60
2018-05-04T09:33:14.365Z,3.40
2018-05-04T09:35:41.276Z,3.97
2018-05-04T09:38:08.132Z,4.20
2018-05-04T09:40:35.117Z,4.53
2018-05-04T09:43:01.947Z,4.60
2018-05-04T09:45:28.828Z,3.70
2018-05-04T09:47:55.669Z,3.87
2018-05-04T09:50:22.591Z,3.63
2018-05-04T09:52:49.912Z,3.37
2018-05-04T09:55:17.376Z,2.87
2018-05-04T09:57:44.247Z,2.70
2018-05-04T10:00:11.105Z,3.00
2018-05-04T10:02:37.952Z,4.07
2018-05-04T10:05:04.818Z,4.33
2018-05-04T10:07:31.691Z,4.23
2018-05-04T10:09:58.619Z,2.90
2018-05-04T10:12:25.450Z,3.90
2018-05-04T10:14:52.519Z,3.70
2018-05-04T10:17:19.582Z,3.20
2018-05-04T10:19:46.857Z,4.20
2018-05-04T10:22:13.823Z,4.03
2018-05-04T10:24:40.683Z,4.80
2018-05-04T10:27:07.537Z,3.77
2018-05-04T10:29:34.505Z,3.53
2018-05-04T10:32:01.408Z,3.37
2018-05-04T10:34:28.265Z,4.33
2018-05-04T10:36:55.527Z,3.50
2018-05-04T10:39:22.828Z,3.60
2018-05-04T10:41:50.056Z,4.23
2018-05-04T10:44:16.950Z,4.50
2018-05-04T10:46:43.818Z,4.33
2018-05-04T10:49:10.716Z,3.23
2018-05-04T10:51:37.678Z,3.40
2018-05-04T10:54:04.883Z,3.80
2018-05-04T10:56:31.814Z,3.53
2018-05-04T10:58:58.739Z,3.30
2018-05-04T11:01:25.598Z,3.30
2018-05-04T11:03:52.438Z,3.37
2018-05-04T11:06:19.403Z,3.60
2018-05-04T11:08:46.222Z,3.57
2018-05-04T11:11:13.488Z,3.90
2018-05-04T11:13:40.759Z,4.30
2018-05-04T11:16:08.050Z,3.50
2018-05-04T11:18:34.906Z,4.10
2018-05-04T11:21:01.760Z,4.70
2018-05-04T11:23:28.666Z,3.53
2018-05-04T11:25:55.606Z,4.03
2018-05-04T11:28:22.535Z,4.20
2018-05-04T11:30:49.459Z,3.80
2018-05-04T11:33:16.238Z,3.80
2018-05-04T11:35:43.215Z,4.30
2018-05-04T11:38:10.056Z,3.73
2018-05-04T11:40:37.017Z,4.53
2018-05-04T11:43:04.230Z,4.33
2018-05-04T11:45:31.145Z,4.40
2018-05-04T11:47:57.987Z,5.07
2018-05-04T11:50:24.896Z,3.90
2018-05-04T11:52:51.829Z,3.20
2018-05-04T11:55:18.774Z,2.90
2018-05-04T11:57:45.645Z,2.87
2018-05-04T12:00:12.502Z,3.53
2018-05-04T12:02:39.467Z,3.03
2018-05-04T12:05:06.322Z,3.00
2018-05-04T12:07:33.172Z,3.30
2018-05-04T12:10:00.060Z,3.07
2018-05-04T12:12:27.006Z,3.60
2018-05-04T12:14:53.845Z,3.60
2018-05-04T12:17:20.842Z,3.20
2018-05-04T12:19:47.713Z,3.67
2018-05-04T12:22:14.576Z,3.30
2018-05-04T12:24:41.392Z,3.13
2018-05-04T12:27:08.322Z,3.30
2018-05-04T12:29:35.179Z,3.37
2018-05-04T12:32:02.055Z,2.80
2018-05-04T12:34:29.019Z,3.67
2018-05-04T12:36:55.878Z,3.60
2018-05-04T12:39:22.738Z,4.07
2018-05-04T12:41:49.694Z,3.90
2018-05-04T12:44:16.573Z,3.43
2018-05-04T12:46:43.385Z,3.53
2018-05-04T12:49:10.263Z,3.50
2018-05-04T12:51:37.196Z,3.03
2018-05-04T12:54:04.087Z,3.40
2018-05-04T12:56:30.893Z,3.53
2018-05-04T12:58:58.186Z,3.10
2018-05-04T13:01:25.137Z,3.20
2018-05-04T13:03:52.100Z,3.60
2018-05-04T13:06:18.979Z,3.57
2018-05-04T13:08:46.022Z,3.40
2018-05-04T13:11:13.347Z,3.93
2018-05-04T13:13:40.667Z,3.43
2018-05-04T13:16:07.627Z,3.80
2018-05-04T13:18:34.472Z,2.77
2018-05-04T13:21:01.356Z,4.00
2018-05-04T13:23:28.254Z,3.30
2018-05-04T13:25:55.511Z,3.60
2018-05-04T13:28:22.350Z,3.10
2018-05-04T13:30:49.195Z,3.70
2018-05-04T13:33:16.059Z,3.87
2018-05-04T13:35:42.983Z,3.50
2018-05-04T13:38:09.834Z,3.20
2018-05-04T13:40:36.790Z,4.10
2018-05-04T13:43:03.658Z,2.90
2018-05-04T13:45:30.578Z,3.20
2018-05-04T13:47:57.473Z,2.80
2018-05-04T13:50:24.498Z,2.87
2018-05-04T13:52:51.328Z,2.90
2018-05-04T13:55:18.219Z,2.83
2018-05-04T13:57:45.503Z,2.60
2018-05-04T14:00:12.347Z,2.70
2018-05-04T14:02:39.643Z,2.93
2018-05-04T14:05:06.587Z,2.83
2018-05-04T14:07:33.449Z,2.83
2018-05-04T14:10:00.340Z,3.03
2018-05-04T14:12:27.291Z,2.60
2018-05-04T14:14:54.155Z,2.80
2018-05-04T14:17:21.033Z,3.00
2018-05-04T14:19:47.892Z,2.60
2018-05-04T14:22:14.735Z,2.73
2018-05-04T14:24:41.650Z,2.67
2018-05-04T14:27:08.558Z,2.60
2018-05-04T14:29:35.382Z,2.43
2018-05-04T14:32:02.410Z,2.60
2018-05-04T14:34:29.671Z,2.40
2018-05-04T14:36:56.915Z,2.23
2018-05-04T14:39:23.763Z,2.70
2018-05-04T14:41:50.624Z,2.60
2018-05-04T14:44:17.548Z,2.30
2018-05-04T14:46:44.486Z,2.40
2018-05-04T14:49:11.363Z,2.10
2018-05-04T14:51:38.348Z,2.17
2018-05-04T14:54:05.199Z,2.43
2018-05-04T14:56:32.194Z,2.70
2018-05-04T14:58:59.425Z,2.50
2018-05-04T15:01:26.387Z,3.00
2018-05-04T15:03:53.242Z,2.80
2018-05-04T15:06:20.158Z,2.43
2018-05-04T15:08:47.015Z,3.03
2018-05-04T15:11:14.264Z,1.90
2018-05-04T15:13:41.500Z,3.03
2018-05-04T15:16:08.614Z,2.57
2018-05-04T15:18:35.383Z,2.50
2018-05-04T15:21:02.285Z,2.70
2018-05-04T15:23:29.170Z,2.33
2018-05-04T15:25:56.035Z,2.37
2018-05-04T15:28:22.889Z,2.33
2018-05-04T15:30:49.753Z,2.73
2018-05-04T15:33:16.647Z,2.20
2018-05-04T15:35:43.512Z,2.27
2018-05-04T15:38:10.483Z,2.43
2018-05-04T15:40:37.462Z,2.70
2018-05-04T15:43:04.271Z,2.83
2018-05-04T15:45:31.257Z,2.50
2018-05-04T15:47:58.114Z,2.70
2018-05-04T15:50:25.587Z,2.30
2018-05-04T15:52:53.432Z,2.70
2018-05-04T15:55:20.286Z,2.53
2018-05-04T15:57:47.142Z,2.67
2018-05-04T16:00:14.092Z,2.80
2018-05-04T16:02:40.939Z,2.80
2018-05-04T16:05:07.823Z,2.50
2018-05-04T16:07:34.703Z,2.70
2018-05-04T16:10:01.548Z,2.43
2018-05-04T16:12:28.462Z,2.77
2018-05-04T16:14:55.757Z,3.00
2018-05-04T16:17:22.711Z,2.97
2018-05-04T16:19:49.641Z,3.20
2018-05-04T16:22:16.535Z,2.60
2018-05-04T16:24:43.310Z,2.33
2018-05-04T16:27:10.206Z,2.30
2018-05-04T16:29:37.455Z,2.27
2018-05-04T16:32:04.375Z,2.67
2018-05-04T16:34:31.230Z,2.50
2018-05-04T16:36:58.128Z,2.50
2018-05-04T16:39:25.006Z,2.30
2018-05-04T16:41:51.848Z,2.23
2018-05-04T16:44:18.752Z,2.50
2018-05-04T16:46:45.717Z,2.40
2018-05-04T16:49:12.559Z,2.43
2018-05-04T16:51:39.517Z,2.43
2018-05-04T16:54:06.377Z,2.70
2018-05-04T16:56:33.239Z,2.73
2018-05-04T16:59:00.101Z,2.87
2018-05-04T17:01:26.948Z,2.70
2018-05-04T17:03:53.818Z,2.70
2018-05-04T17:06:20.764Z,2.40
2018-05-04T17:08:47.723Z,2.83
2018-05-04T17:11:14.619Z,2.63
2018-05-04T17:13:41.460Z,2.70
2018-05-04T17:16:08.416Z,2.90
2018-05-04T17:18:35.268Z,2.73
2018-05-04T17:21:02.146Z,2.60
2018-05-04T17:23:29.102Z,2.60
2018-05-04T17:25:55.967Z,2.70
2018-05-04T17:28:22.884Z,3.03
2018-05-04T17:30:49.730Z,2.50
2018-05-04T17:33:16.614Z,2.30
2018-05-04T17:35:43.454Z,2.60
2018-05-04T17:38:10.338Z,2.80
2018-05-04T17:40:37.175Z,2.77
2018-05-04T17:43:04.038Z,2.70
2018-05-04T17:45:30.985Z,2.40
2018-05-04T17:47:57.894Z,3.03
2018-05-04T17:50:24.817Z,3.20
2018-05-04T17:52:51.676Z,2.27
2018-05-04T17:55:18.533Z,3.10
2018-05-04T17:57:45.390Z,3.43
2018-05-04T18:00:12.340Z,2.90
2018-05-04T18:02:39.255Z,3.40
2018-05-04T18:05:06.139Z,3.90
2018-05-04T18:07:33.396Z,3.53
2018-05-04T18:10:00.667Z,3.20
2018-05-04T18:12:27.599Z,3.13
2018-05-04T18:14:54.446Z,4.00
2018-05-04T18:17:21.331Z,3.27
2018-05-04T18:19:48.154Z,3.73
2018-05-04T18:22:15.021Z,3.10
2018-05-04T18:24:41.895Z,3.50
2018-05-04T18:27:09.171Z,2.43
2018-05-04T18:29:36.399Z,2.97
2018-05-04T18:32:03.315Z,3.53
2018-05-04T18:34:30.169Z,3.43
2018-05-04T18:36:57.041Z,3.90
2018-05-04T18:39:23.896Z,3.70
2018-05-04T18:41:50.762Z,4.10
2018-05-04T18:44:17.709Z,4.00
2018-05-04T18:46:44.614Z,3.87
2018-05-04T18:49:11.530Z,4.43
2018-05-04T18:51:38.380Z,4.23
2018-05-04T18:54:05.226Z,4.00
2018-05-04T18:56:32.073Z,4.20
2018-05-04T18:58:58.954Z,3.80
2018-05-04T19:01:25.817Z,3.63
2018-05-04T19:03:52.683Z,4.13
2018-05-04T19:06:19.539Z,4.60
2018-05-04T19:08:46.471Z,4.60
2018-05-04T19:11:13.696Z,3.70
2018-05-04T19:13:40.551Z,4.20
2018-05-04T19:16:07.461Z,4.13
2018-05-04T19:18:34.425Z,3.80
2018-05-04T19:21:01.284Z,3.97
2018-05-04T19:23:28.148Z,3.53
2018-05-04T19:25:54.989Z,3.93
2018-05-04T19:28:21.872Z,3.87
2018-05-04T19:30:48.706Z,3.63
2018-05-04T19:33:15.543Z,3.40
2018-05-04T19:35:42.474Z,5.13
2018-05-04T19:38:09.318Z,3.70
2018-05-04T19:40:36.184Z,3.57
2018-05-04T19:43:03.049Z,3.90
2018-05-04T19:45:29.871Z,3.87
2018-05-04T19:47:56.830Z,3.73
2018-05-04T19:50:23.769Z,4.10
2018-05-04T19:52:50.632Z,3.90
2018-05-04T19:55:17.473Z,3.97
2018-05-04T19:57:44.343Z,4.73
2018-05-04T20:00:11.183Z,3.50
2018-05-04T20:02:38.038Z,4.70
2018-05-04T20:05:04.879Z,5.60
2018-05-04T20:07:31.823Z,4.20
2018-05-04T20:09:59.065Z,3.63
2018-05-04T20:12:25.915Z,3.60
2018-05-04T20:14:52.774Z,4.03
2018-05-04T20:17:19.683Z,4.00
2018-05-04T20:19:46.552Z,3.40
2018-05-04T20:22:13.386Z,3.40
2018-05-04T20:24:40.252Z,3.63
2018-05-04T20:27:07.119Z,3.50
2018-05-04T20:29:33.985Z,3.67
2018-05-04T20:32:00.948Z,3.40
2018-05-04T20:34:27.903Z,3.70
2018-05-04T20:36:54.776Z,4.03
2018-05-04T20:39:21.625Z,3.83
2018-05-04T20:41:48.563Z,3.33
2018-05-04T20:44:15.500Z,4.20
2018-05-04T20:46:42.274Z,4.00
2018-05-04T20:49:09.130Z,3.73
2018-05-04T20:51:35.981Z,3.53
2018-05-04T20:54:02.849Z,3.93
2018-05-04T20:56:29.686Z,3.80
2018-05-04T20:58:56.604Z,3.50
2018-05-04T21:01:23.425Z,3.50
2018-05-04T21:03:50.274Z,3.50
2018-05-04T21:06:17.321Z,4.20
2018-05-04T21:08:44.100Z,4.00
2018-05-04T21:11:10.951Z,4.07
2018-05-04T21:13:37.802Z,3.70
2018-05-04T21:16:04.689Z,3.30
2018-05-04T21:18:31.553Z,3.53
2018-05-04T21:20:58.419Z,3.20
2018-05-04T21:23:25.539Z,3.50
2018-05-04T21:25:52.800Z,3.50
2018-05-04T21:28:19.667Z,4.00
2018-05-04T21:30:46.657Z,3.73
2018-05-04T21:33:13.546Z,3.87
2018-05-04T21:35:40.813Z,4.23
2018-05-04T21:38:08.051Z,4.47
2018-05-04T21:40:34.907Z,4.07
2018-05-04T21:43:01.757Z,3.70
2018-05-04T21:45:28.707Z,3.97
2018-05-04T21:47:55.545Z,3.43
2018-05-04T21:50:22.396Z,4.50
2018-05-04T21:52:49.243Z,4.23
2018-05-04T21:55:16.105Z,3.87
2018-05-04T21:57:42.953Z,3.87
2018-05-04T22:00:09.803Z,3.47
2018-05-04T22:02:36.672Z,4.30
2018-05-04T22:05:03.519Z,3.47
2018-05-04T22:07:30.800Z,3.73
2018-05-04T22:09:57.757Z,3.90
2018-05-04T22:12:24.716Z,3.90
2018-05-04T22:14:51.598Z,3.77
2018-05-04T22:17:18.443Z,4.03
2018-05-04T22:19:45.287Z,3.80
2018-05-04T22:22:12.142Z,4.73
2018-05-04T22:24:38.994Z,3.97
2018-05-04T22:27:05.834Z,4.10
2018-05-04T22:29:33.081Z,4.03
2018-05-04T22:31:59.973Z,3.70
2018-05-04T22:34:26.864Z,3.47
2018-05-04T22:36:53.698Z,3.90
2018-05-04T22:39:20.542Z,4.20
2018-05-04T22:41:47.407Z,4.00
2018-05-04T22:44:14.274Z,3.90
2018-05-04T22:46:41.135Z,3.70
2018-05-04T22:49:07.977Z,4.60
2018-05-04T22:51:35.131Z,3.50
2018-05-04T22:54:02.421Z,4.30
2018-05-04T22:56:29.436Z,4.00
2018-05-04T22:58:56.585Z,3.73
2018-05-04T23:01:23.472Z,3.70
2018-05-04T23:03:50.707Z,4.17
2018-05-04T23:06:17.555Z,4.10
2018-05-04T23:08:44.414Z,3.50
2018-05-04T23:11:11.336Z,3.53
2018-05-04T23:13:38.202Z,3.93
2018-05-04T23:16:05.058Z,4.20
2018-05-04T23:18:31.914Z,4.87
2018-05-04T23:20:58.893Z,3.40
2018-05-04T23:23:25.834Z,3.43
2018-05-04T23:25:52.688Z,4.00
2018-05-04T23:28:19.562Z,3.80
2018-05-04T23:30:46.499Z,3.07
2018-05-04T23:33:13.355Z,3.77
2018-05-04T23:35:40.207Z,3.93
2018-05-04T23:38:07.075Z,3.70
2018-05-04T23:40:33.952Z,3.80
2018-05-04T23:43:00.812Z,3.73
2018-05-04T23:45:27.762Z,3.50
2018-05-04T23:47:54.609Z,4.20
2018-05-04T23:50:21.462Z,3.50
2018-05-04T23:52:48.418Z,3.33
2018-05-04T23:55:15.264Z,2.90
2018-05-04T23:57:42.129Z,3.70
